sensor_id;sensor_type;location;lat;lon;timestamp;pressure;altitude;pressure_sealevel;temperature;humidity
57801;BME280;43627;42.728;23.256;2022-09-03T00:02:13;95006.47;;;14.98;100.00
57801;BME280;43627;42.728;23.256;2022-09-03T00:04:47;95024.94;;;14.97;100.00
57801;BME280;43627;42.728;23.256;2022-09-03T00:07:19;95016.66;;;14.92;100.00
57801;BME280;43627;42.728;23.256;2022-09-03T00:09:56;95013.16;;;14.91;100.00
57801;BME280;43627;42.728;23.256;2022-09-03T00:12:27;95011.22;;;14.97;100.00
57801;BME280;43627;42.728;23.256;2022-09-03T00:15:07;95022.91;;;14.92;100.00
57801;BME280;43627;42.728;23.256;2022-09-03T00:17:41;95017.91;;;14.91;100.00
57801;BME280;43627;42.728;23.256;2022-09-03T00:22:46;95017.09;;;14.84;100.00
57801;BME280;43627;42.728;23.256;2022-09-03T00:25:18;95012.53;;;14.76;100.00
57801;BME280;43627;42.728;23.256;2022-09-03T00:27:52;95011.31;;;14.77;100.00
57801;BME280;43627;42.728;23.256;2022-09-03T00:30:21;95005.72;;;14.66;100.00
57801;BME280;43627;42.728;23.256;2022-09-03T00:32:58;95012.03;;;14.72;100.00
57801;BME280;43627;42.728;23.256;2022-09-03T00:35:44;95003.53;;;14.70;100.00
57801;BME280;43627;42.728;23.256;2022-09-03T00:38:13;95004.00;;;14.68;100.00
57801;BME280;43627;42.728;23.256;2022-09-03T00:41:01;94999.06;;;14.72;100.00
57801;BME280;43627;42.728;23.256;2022-09-03T00:44:13;95003.06;;;14.77;100.00
57801;BME280;43627;42.728;23.256;2022-09-03T00:52:09;95009.59;;;14.79;100.00
57801;BME280;43627;42.728;23.256;2022-09-03T00:57:38;95014.34;;;14.84;100.00
57801;BME280;43627;42.728;23.256;2022-09-03T01:00:10;95006.31;;;14.75;100.00
57801;BME280;43627;42.728;23.256;2022-09-03T01:02:44;95011.09;;;14.80;100.00
57801;BME280;43627;42.728;23.256;2022-09-03T01:10:29;95002.59;;;14.78;100.00
57801;BME280;43627;42.728;23.256;2022-09-03T01:13:09;94983.28;;;14.67;100.00
57801;BME280;43627;42.728;23.256;2022-09-03T01:18:58;95006.31;;;14.75;100.00
57801;BME280;43627;42.728;23.256;2022-09-03T01:21:59;95008.53;;;14.71;100.00
57801;BME280;43627;42.728;23.256;2022-09-03T01:30:48;95010.03;;;14.72;100.00
57801;BME280;43627;42.728;23.256;2022-09-03T01:33:27;95028.25;;;14.75;100.00
57801;BME280;43627;42.728;23.256;2022-09-03T01:36:11;95030.50;;;14.77;100.00
57801;BME280;43627;42.728;23.256;2022-09-03T01:38:55;95036.66;;;14.66;100.00
57801;BME280;43627;42.728;23.256;2022-09-03T01:47:30;95038.00;;;14.76;100.00
57801;BME280;43627;42.728;23.256;2022-09-03T02:01:29;95014.03;;;14.71;100.00
57801;BME280;43627;42.728;23.256;2022-09-03T02:03:58;95012.28;;;14.74;100.00
57801;BME280;43627;42.728;23.256;2022-09-03T02:06:26;95021.59;;;14.82;100.00
57801;BME280;43627;42.728;23.256;2022-09-03T02:08:57;95025.25;;;14.73;100.00
57801;BME280;43627;42.728;23.256;2022-09-03T02:11:24;95024.81;;;14.80;100.00
57801;BME280;43627;42.728;23.256;2022-09-03T02:13:53;95028.25;;;14.75;100.00
57801;BME280;43627;42.728;23.256;2022-09-03T02:16:27;95041.72;;;14.73;100.00
57801;BME280;43627;42.728;23.256;2022-09-03T02:18:59;95029.00;;;14.70;100.00
57801;BME280;43627;42.728;23.256;2022-09-03T02:21:32;95031.50;;;14.74;100.00
57801;BME280;43627;42.728;23.256;2022-09-03T02:24:00;95023.53;;;14.76;100.00
57801;BME280;43627;42.728;23.256;2022-09-03T02:26:28;95031.25;;;14.77;100.00
57801;BME280;43627;42.728;23.256;2022-09-03T02:28:55;95033.06;;;14.80;100.00
57801;BME280;43627;42.728;23.256;2022-09-03T02:31:23;95038.53;;;14.80;100.00
57801;BME280;43627;42.728;23.256;2022-09-03T02:33:50;95042.78;;;14.81;100.00
57801;BME280;43627;42.728;23.256;2022-09-03T02:36:20;95038.94;;;14.68;100.00
57801;BME280;43627;42.728;23.256;2022-09-03T02:38:53;95041.41;;;14.66;100.00
57801;BME280;43627;42.728;23.256;2022-09-03T02:41:19;95043.66;;;14.67;100.00
57801;BME280;43627;42.728;23.256;2022-09-03T02:43:55;95039.41;;;14.66;100.00
57801;BME280;43627;42.728;23.256;2022-09-03T02:49:07;95055.94;;;14.72;100.00
57801;BME280;43627;42.728;23.256;2022-09-03T02:51:36;95055.19;;;14.71;100.00
57801;BME280;43627;42.728;23.256;2022-09-03T02:54:03;95047.13;;;14.62;100.00
57801;BME280;43627;42.728;23.256;2022-09-03T02:56:30;95050.72;;;14.74;100.00
57801;BME280;43627;42.728;23.256;2022-09-03T02:58:57;95053.19;;;14.72;100.00
57801;BME280;43627;42.728;23.256;2022-09-03T03:01:24;95040.22;;;14.72;100.00
57801;BME280;43627;42.728;23.256;2022-09-03T03:03:51;95046.53;;;14.78;100.00
57801;BME280;43627;42.728;23.256;2022-09-03T03:06:19;95043.19;;;14.69;100.00
57801;BME280;43627;42.728;23.256;2022-09-03T03:08:47;95047.66;;;14.66;100.00
57801;BME280;43627;42.728;23.256;2022-09-03T03:11:16;95038.47;;;14.69;100.00
57801;BME280;43627;42.728;23.256;2022-09-03T03:13:46;95045.94;;;14.69;100.00
57801;BME280;43627;42.728;23.256;2022-09-03T03:16:14;95036.66;;;14.66;100.00
57801;BME280;43627;42.728;23.256;2022-09-03T03:18:42;95038.66;;;14.66;100.00
57801;BME280;43627;42.728;23.256;2022-09-03T03:21:14;95035.44;;;14.67;100.00
57801;BME280;43627;42.728;23.256;2022-09-03T03:23:41;95037.91;;;14.65;100.00
57801;BME280;43627;42.728;23.256;2022-09-03T03:26:11;95030.94;;;14.64;100.00
57801;BME280;43627;42.728;23.256;2022-09-03T03:28:38;95043.94;;;14.69;100.00
57801;BME280;43627;42.728;23.256;2022-09-03T03:31:11;95045.44;;;14.70;100.00
57801;BME280;43627;42.728;23.256;2022-09-03T03:33:38;95039.66;;;14.63;100.00
57801;BME280;43627;42.728;23.256;2022-09-03T03:36:07;95036.94;;;14.68;100.00
57801;BME280;43627;42.728;23.256;2022-09-03T03:38:35;95041.97;;;14.70;100.00
57801;BME280;43627;42.728;23.256;2022-09-03T03:41:18;95046.69;;;14.69;100.00
57801;BME280;43627;42.728;23.256;2022-09-03T03:43:51;95053.56;;;14.59;100.00
57801;BME280;43627;42.728;23.256;2022-09-03T03:46:18;95048.81;;;14.54;100.00
57801;BME280;43627;42.728;23.256;2022-09-03T03:48:47;95049.06;;;14.56;100.00
57801;BME280;43627;42.728;23.256;2022-09-03T03:51:14;95038.75;;;14.45;100.00
57801;BME280;43627;42.728;23.256;2022-09-03T03:53:40;95045.78;;;14.52;100.00
57801;BME280;43627;42.728;23.256;2022-09-03T03:56:10;95048.53;;;14.52;100.00
57801;BME280;43627;42.728;23.256;2022-09-03T03:58:38;95055.31;;;14.56;100.00
57801;BME280;43627;42.728;23.256;2022-09-03T04:01:12;95045.25;;;14.48;100.00
57801;BME280;43627;42.728;23.256;2022-09-03T04:03:40;95049.72;;;14.45;100.00
57801;BME280;43627;42.728;23.256;2022-09-03T04:06:08;95049.91;;;14.42;100.00
57801;BME280;43627;42.728;23.256;2022-09-03T04:08:37;95041.75;;;14.47;100.00
57801;BME280;43627;42.728;23.256;2022-09-03T04:11:07;95052.22;;;14.49;100.00
57801;BME280;43627;42.728;23.256;2022-09-03T04:13:37;95031.72;;;14.44;100.00
57801;BME280;43627;42.728;23.256;2022-09-03T04:16:12;95029.97;;;14.41;100.00
57801;BME280;43627;42.728;23.256;2022-09-03T04:18:40;95036.19;;;14.42;100.00
57801;BME280;43627;42.728;23.256;2022-09-03T04:21:10;95050.72;;;14.48;100.00
57801;BME280;43627;42.728;23.256;2022-09-03T04:23:39;95044.50;;;14.47;100.00
57801;BME280;43627;42.728;23.256;2022-09-03T04:26:07;95039.06;;;14.53;100.00
57801;BME280;43627;42.728;23.256;2022-09-03T04:28:34;95054.13;;;14.63;100.00
57801;BME280;43627;42.728;23.256;2022-09-03T04:31:06;95053.31;;;14.57;100.00
57801;BME280;43627;42.728;23.256;2022-09-03T04:33:35;95073.25;;;14.57;100.00
57801;BME280;43627;42.728;23.256;2022-09-03T04:36:10;95075.41;;;14.48;100.00
57801;BME280;43627;42.728;23.256;2022-09-03T04:38:40;95071.25;;;14.52;100.00
57801;BME280;43627;42.728;23.256;2022-09-03T04:41:10;95076.72;;;14.52;100.00
57801;BME280;43627;42.728;23.256;2022-09-03T04:43:37;95080.97;;;14.53;100.00
57801;BME280;43627;42.728;23.256;2022-09-03T04:46:06;95085.72;;;14.53;100.00
57801;BME280;43627;42.728;23.256;2022-09-03T04:48:43;95078.47;;;14.50;100.00
57801;BME280;43627;42.728;23.256;2022-09-03T04:51:14;95084.53;;;14.39;100.00
57801;BME280;43627;42.728;23.256;2022-09-03T04:53:43;95096.06;;;14.43;100.00
57801;BME280;43627;42.728;23.256;2022-09-03T04:56:19;95086.81;;;14.41;100.00
57801;BME280;43627;42.728;23.256;2022-09-03T04:58:47;95101.47;;;14.58;100.00
57801;BME280;43627;42.728;23.256;2022-09-03T05:01:18;95104.09;;;14.73;100.00
57801;BME280;43627;42.728;23.256;2022-09-03T05:03:46;95107.00;;;14.64;100.00
57801;BME280;43627;42.728;23.256;2022-09-03T05:06:13;95102.50;;;14.61;100.00
57801;BME280;43627;42.728;23.256;2022-09-03T05:08:43;95106.75;;;14.62;100.00
57801;BME280;43627;42.728;23.256;2022-09-03T05:11:15;95113.69;;;14.57;100.00
57801;BME280;43627;42.728;23.256;2022-09-03T05:13:42;95106.00;;;14.61;100.00
57801;BME280;43627;42.728;23.256;2022-09-03T05:16:10;95126.53;;;14.71;100.00
57801;BME280;43627;42.728;23.256;2022-09-03T05:18:37;95118.41;;;14.82;100.00
57801;BME280;43627;42.728;23.256;2022-09-03T05:21:06;95117.91;;;14.84;100.00
57801;BME280;43627;42.728;23.256;2022-09-03T05:23:38;95118.66;;;14.84;100.00
57801;BME280;43627;42.728;23.256;2022-09-03T05:26:11;95100.34;;;14.70;100.00
57801;BME280;43627;42.728;23.256;2022-09-03T05:28:39;95103.50;;;14.63;100.00
57801;BME280;43627;42.728;23.256;2022-09-03T05:31:17;95105.88;;;14.76;100.00
57801;BME280;43627;42.728;23.256;2022-09-03T05:33:46;95106.00;;;14.61;100.00
57801;BME280;43627;42.728;23.256;2022-09-03T05:36:19;95120.13;;;14.80;100.00
57801;BME280;43627;42.728;23.256;2022-09-03T05:38:48;95120.50;;;14.93;100.00
57801;BME280;43627;42.728;23.256;2022-09-03T05:41:17;95117.56;;;15.02;100.00
57801;BME280;43627;42.728;23.256;2022-09-03T05:43:47;95106.34;;;15.06;100.00
57801;BME280;43627;42.728;23.256;2022-09-03T05:46:17;95105.16;;;15.12;100.00
57801;BME280;43627;42.728;23.256;2022-09-03T05:48:44;95116.50;;;15.26;100.00
57801;BME280;43627;42.728;23.256;2022-09-03T05:51:16;95115.84;;;15.42;100.00
57801;BME280;43627;42.728;23.256;2022-09-03T05:53:45;95114.59;;;15.37;100.00
57801;BME280;43627;42.728;23.256;2022-09-03T05:56:20;95110.38;;;15.42;100.00
57801;BME280;43627;42.728;23.256;2022-09-03T05:58:50;95117.66;;;15.51;100.00
57801;BME280;43627;42.728;23.256;2022-09-03T06:01:25;95111.47;;;15.56;100.00
57801;BME280;43627;42.728;23.256;2022-09-03T06:04:06;95110.34;;;15.74;100.00
57801;BME280;43627;42.728;23.256;2022-09-03T06:06:35;95115.44;;;15.97;100.00
57801;BME280;43627;42.728;23.256;2022-09-03T06:09:07;95118.94;;;15.98;100.00
57801;BME280;43627;42.728;23.256;2022-09-03T06:11:37;95119.44;;;15.96;100.00
57801;BME280;43627;42.728;23.256;2022-09-03T06:14:06;95125.00;;;16.13;100.00
57801;BME280;43627;42.728;23.256;2022-09-03T06:16:37;95121.34;;;16.33;100.00
57801;BME280;43627;42.728;23.256;2022-09-03T06:19:06;95120.88;;;16.51;100.00
57801;BME280;43627;42.728;23.256;2022-09-03T06:21:36;95113.19;;;16.95;100.00
57801;BME280;43627;42.728;23.256;2022-09-03T06:24:03;95119.72;;;17.31;100.00
57801;BME280;43627;42.728;23.256;2022-09-03T06:26:29;95116.69;;;17.40;100.00
57801;BME280;43627;42.728;23.256;2022-09-03T06:28:56;95120.72;;;17.39;100.00
57801;BME280;43627;42.728;23.256;2022-09-03T06:31:24;95128.22;;;17.22;100.00
57801;BME280;43627;42.728;23.256;2022-09-03T06:33:51;95123.97;;;17.32;100.00
57801;BME280;43627;42.728;23.256;2022-09-03T06:36:21;95131.00;;;17.22;100.00
57801;BME280;43627;42.728;23.256;2022-09-03T06:38:51;95119.97;;;17.10;100.00
57801;BME280;43627;42.728;23.256;2022-09-03T06:41:20;95127.00;;;17.06;100.00
57801;BME280;43627;42.728;23.256;2022-09-03T06:43:52;95123.69;;;16.74;100.00
57801;BME280;43627;42.728;23.256;2022-09-03T06:46:22;95119.88;;;16.54;100.00
57801;BME280;43627;42.728;23.256;2022-09-03T06:48:50;95132.16;;;16.65;100.00
57801;BME280;43627;42.728;23.256;2022-09-03T06:51:19;95132.91;;;16.65;100.00
57801;BME280;43627;42.728;23.256;2022-09-03T06:54:21;95111.38;;;16.52;100.00
57801;BME280;43627;42.728;23.256;2022-09-03T06:56:48;95131.13;;;16.56;100.00
57801;BME280;43627;42.728;23.256;2022-09-03T06:59:15;95133.09;;;16.34;100.00
57801;BME280;43627;42.728;23.256;2022-09-03T07:01:42;95141.16;;;16.60;100.00
57801;BME280;43627;42.728;23.256;2022-09-03T07:04:13;95138.97;;;16.80;100.00
57801;BME280;43627;42.728;23.256;2022-09-03T07:06:44;95123.22;;;17.03;100.00
57801;BME280;43627;42.728;23.256;2022-09-03T07:09:12;95146.03;;;17.15;100.00
57801;BME280;43627;42.728;23.256;2022-09-03T07:11:41;95137.75;;;17.54;100.00
57801;BME280;43627;42.728;23.256;2022-09-03T07:14:15;95144.75;;;17.55;100.00
57801;BME280;43627;42.728;23.256;2022-09-03T07:16:42;95147.25;;;17.59;100.00
57801;BME280;43627;42.728;23.256;2022-09-03T07:19:09;95152.00;;;17.75;100.00
57801;BME280;43627;42.728;23.256;2022-09-03T07:21:39;95141.97;;;17.66;100.00
57801;BME280;43627;42.728;23.256;2022-09-03T07:24:14;95157.03;;;17.71;100.00
57801;BME280;43627;42.728;23.256;2022-09-03T07:26:41;95158.25;;;17.92;100.00
57801;BME280;43627;42.728;23.256;2022-09-03T07:29:14;95161.00;;;17.92;100.00
57801;BME280;43627;42.728;23.256;2022-09-03T07:31:42;95149.91;;;18.15;100.00
57801;BME280;43627;42.728;23.256;2022-09-03T07:34:11;95158.53;;;18.52;100.00
57801;BME280;43627;42.728;23.256;2022-09-03T07:36:44;95170.38;;;18.42;100.00
57801;BME280;43627;42.728;23.256;2022-09-03T07:39:18;95174.16;;;18.91;100.00
57801;BME280;43627;42.728;23.256;2022-09-03T07:41:45;95165.19;;;18.79;100.00
57801;BME280;43627;42.728;23.256;2022-09-03T07:44:14;95163.25;;;18.69;100.00
57801;BME280;43627;42.728;23.256;2022-09-03T07:46:45;95164.16;;;18.24;100.00
57801;BME280;43627;42.728;23.256;2022-09-03T07:49:13;95163.06;;;18.50;100.00
57801;BME280;43627;42.728;23.256;2022-09-03T07:51:40;95164.00;;;18.69;100.00
57801;BME280;43627;42.728;23.256;2022-09-03T07:54:08;95166.09;;;18.93;100.00
57801;BME280;43627;42.728;23.256;2022-09-03T07:56:38;95176.16;;;18.91;100.00
57801;BME280;43627;42.728;23.256;2022-09-03T07:59:06;95160.44;;;18.74;100.00
57801;BME280;43627;42.728;23.256;2022-09-03T08:01:34;95171.78;;;18.65;100.00
57801;BME280;43627;42.728;23.256;2022-09-03T08:04:01;95163.66;;;18.84;100.00
57801;BME280;43627;42.728;23.256;2022-09-03T08:06:30;95173.13;;;18.94;100.00
57801;BME280;43627;42.728;23.256;2022-09-03T08:09:01;95172.03;;;19.08;100.00
57801;BME280;43627;42.728;23.256;2022-09-03T08:11:32;95183.25;;;18.80;100.00
57801;BME280;43627;42.728;23.256;2022-09-03T08:14:03;95169.75;;;19.12;100.00
57801;BME280;43627;42.728;23.256;2022-09-03T08:16:44;95174.00;;;19.13;100.00
57801;BME280;43627;42.728;23.256;2022-09-03T08:19:14;95168.25;;;19.11;100.00
57801;BME280;43627;42.728;23.256;2022-09-03T08:21:43;95166.72;;;19.16;100.00
57801;BME280;43627;42.728;23.256;2022-09-03T08:24:11;95173.00;;;19.47;100.00
57801;BME280;43627;42.728;23.256;2022-09-03T08:26:39;95183.09;;;19.98;100.00
57801;BME280;43627;42.728;23.256;2022-09-03T08:29:07;95166.91;;;19.84;100.00
57801;BME280;43627;42.728;23.256;2022-09-03T08:31:34;95163.78;;;19.68;100.00
57801;BME280;43627;42.728;23.256;2022-09-03T08:34:05;95171.22;;;19.79;100.00
57801;BME280;43627;42.728;23.256;2022-09-03T08:36:37;95166.97;;;20.03;100.00
57801;BME280;43627;42.728;23.256;2022-09-03T08:39:06;95165.31;;;20.18;100.00
57801;BME280;43627;42.728;23.256;2022-09-03T08:47:28;95168.75;;;19.46;100.00
57801;BME280;43627;42.728;23.256;2022-09-03T08:52:55;95166.09;;;19.64;100.00
57801;BME280;43627;42.728;23.256;2022-09-03T08:55:28;95174.94;;;20.12;100.00
57801;BME280;43627;42.728;23.256;2022-09-03T09:01:01;95165.16;;;20.73;96.88
57801;BME280;43627;42.728;23.256;2022-09-03T09:03:33;95163.94;;;20.25;100.00
57801;BME280;43627;42.728;23.256;2022-09-03T09:11:34;95182.75;;;21.13;89.50
57801;BME280;43627;42.728;23.256;2022-09-03T09:22:06;95175.47;;;21.29;87.70
57801;BME280;43627;42.728;23.256;2022-09-03T09:24:41;95182.69;;;21.51;85.93
57801;BME280;43627;42.728;23.256;2022-09-03T09:27:12;95184.88;;;21.39;88.33
57801;BME280;43627;42.728;23.256;2022-09-03T09:29:45;95184.59;;;21.43;86.67
57801;BME280;43627;42.728;23.256;2022-09-03T09:32:15;95181.47;;;21.14;91.55
57801;BME280;43627;42.728;23.256;2022-09-03T09:34:44;95183.97;;;21.50;86.18
57801;BME280;43627;42.728;23.256;2022-09-03T09:37:17;95178.13;;;21.53;85.87
57801;BME280;43627;42.728;23.256;2022-09-03T09:39:56;95182.53;;;21.75;88.82
57801;BME280;43627;42.728;23.256;2022-09-03T09:42:23;95174.94;;;21.11;91.63
57801;BME280;43627;42.728;23.256;2022-09-03T09:44:50;95176.91;;;21.49;91.87
57801;BME280;43627;42.728;23.256;2022-09-03T09:47:24;95190.06;;;21.10;87.03
57801;BME280;43627;42.728;23.256;2022-09-03T09:49:53;95188.34;;;20.51;91.06
57801;BME280;43627;42.728;23.256;2022-09-03T09:52:21;95178.19;;;20.78;100.00
57801;BME280;43627;42.728;23.256;2022-09-03T09:54:52;95182.34;;;21.22;90.06
57801;BME280;43627;42.728;23.256;2022-09-03T09:57:24;95180.22;;;20.59;92.19
57801;BME280;43627;42.728;23.256;2022-09-03T10:00:12;95179.69;;;20.60;100.00
57801;BME280;43627;42.728;23.256;2022-09-03T10:02:47;95182.41;;;20.85;95.56
57801;BME280;43627;42.728;23.256;2022-09-03T10:05:25;95188.66;;;20.47;93.19
57801;BME280;43627;42.728;23.256;2022-09-03T10:08:17;95191.56;;;20.55;92.98
57801;BME280;43627;42.728;23.256;2022-09-03T10:10:46;95191.94;;;20.46;90.55
57801;BME280;43627;42.728;23.256;2022-09-03T10:13:21;95190.72;;;20.41;95.93
57801;BME280;43627;42.728;23.256;2022-09-03T10:15:56;95182.09;;;20.88;89.64
57801;BME280;43627;42.728;23.256;2022-09-03T10:18:51;95171.00;;;20.88;87.60
57801;BME280;43627;42.728;23.256;2022-09-03T10:26:26;95179.47;;;20.77;96.32
57801;BME280;43627;42.728;23.256;2022-09-03T10:29:00;95178.84;;;20.84;94.62
57801;BME280;43627;42.728;23.256;2022-09-03T10:34:14;95172.69;;;20.53;94.61
57801;BME280;43627;42.728;23.256;2022-09-03T10:50:47;95176.66;;;21.79;84.01
57801;BME280;43627;42.728;23.256;2022-09-03T10:56:12;95172.09;;;21.94;85.78
57801;BME280;43627;42.728;23.256;2022-09-03T11:04:21;95177.72;;;22.21;79.29
57801;BME280;43627;42.728;23.256;2022-09-03T11:07:02;95177.50;;;22.19;82.66
57801;BME280;43627;42.728;23.256;2022-09-03T11:09:37;95179.19;;;22.22;83.61
57801;BME280;43627;42.728;23.256;2022-09-03T11:12:28;95187.59;;;22.69;76.75
57801;BME280;43627;42.728;23.256;2022-09-03T11:15:06;95186.66;;;22.53;74.83
57801;BME280;43627;42.728;23.256;2022-09-03T11:17:39;95178.00;;;22.44;78.35
57801;BME280;43627;42.728;23.256;2022-09-03T11:20:24;95178.81;;;22.78;76.76
57801;BME280;43627;42.728;23.256;2022-09-03T11:23:00;95177.63;;;23.00;76.72
57801;BME280;43627;42.728;23.256;2022-09-03T11:25:36;95183.63;;;22.91;74.17
57801;BME280;43627;42.728;23.256;2022-09-03T11:31:07;95181.94;;;22.88;76.60
57801;BME280;43627;42.728;23.256;2022-09-03T11:33:46;95166.41;;;23.27;70.39
57801;BME280;43627;42.728;23.256;2022-09-03T11:36:31;95174.91;;;23.42;71.33
57801;BME280;43627;42.728;23.256;2022-09-03T11:38:59;95180.88;;;23.46;70.86
57801;BME280;43627;42.728;23.256;2022-09-03T11:41:31;95175.78;;;23.58;71.27
57801;BME280;43627;42.728;23.256;2022-09-03T11:44:17;95166.94;;;23.25;69.80
57801;BME280;43627;42.728;23.256;2022-09-03T11:46:57;95163.97;;;22.89;72.44
57801;BME280;43627;42.728;23.256;2022-09-03T11:49:28;95161.06;;;22.81;76.63
57801;BME280;43627;42.728;23.256;2022-09-03T11:52:00;95168.81;;;23.09;75.48
57801;BME280;43627;42.728;23.256;2022-09-03T11:54:31;95170.06;;;23.22;75.58
57801;BME280;43627;42.728;23.256;2022-09-03T11:57:28;95174.63;;;23.32;71.08
57801;BME280;43627;42.728;23.256;2022-09-03T12:00:11;95178.00;;;23.18;74.57
57801;BME280;43627;42.728;23.256;2022-09-03T12:02:48;95172.88;;;23.08;71.29
57801;BME280;43627;42.728;23.256;2022-09-03T12:16:55;95155.19;;;23.40;67.62
57801;BME280;43627;42.728;23.256;2022-09-03T12:19:31;95159.69;;;23.22;66.94
57801;BME280;43627;42.728;23.256;2022-09-03T12:22:01;95157.13;;;22.64;71.78
57801;BME280;43627;42.728;23.256;2022-09-03T12:24:31;95161.03;;;22.21;82.06
57801;BME280;43627;42.728;23.256;2022-09-03T12:27:03;95160.72;;;22.38;76.22
57801;BME280;43627;42.728;23.256;2022-09-03T12:29:31;95161.53;;;22.59;71.66
57801;BME280;43627;42.728;23.256;2022-09-03T12:32:06;95155.41;;;22.87;70.60
57801;BME280;43627;42.728;23.256;2022-09-03T12:34:33;95141.97;;;23.12;69.55
57801;BME280;43627;42.728;23.256;2022-09-03T12:37:00;95152.69;;;23.50;66.62
57801;BME280;43627;42.728;23.256;2022-09-03T12:39:28;95149.03;;;23.34;67.65
57801;BME280;43627;42.728;23.256;2022-09-03T12:42:21;95154.13;;;23.22;70.62
57801;BME280;43627;42.728;23.256;2022-09-03T12:44:49;95154.69;;;23.62;68.30
57801;BME280;43627;42.728;23.256;2022-09-03T12:47:21;95151.25;;;23.70;66.42
57801;BME280;43627;42.728;23.256;2022-09-03T12:50:08;95134.53;;;23.70;64.40
57801;BME280;43627;42.728;23.256;2022-09-03T12:52:44;95142.34;;;23.71;65.48
57801;BME280;43627;42.728;23.256;2022-09-03T12:58:18;95139.13;;;23.67;66.73
57801;BME280;43627;42.728;23.256;2022-09-03T13:03:28;95129.56;;;23.55;65.93
57801;BME280;43627;42.728;23.256;2022-09-03T13:06:07;95119.47;;;23.65;66.77
57801;BME280;43627;42.728;23.256;2022-09-03T13:08:49;95120.91;;;23.87;64.81
57801;BME280;43627;42.728;23.256;2022-09-03T13:11:19;95123.94;;;23.68;64.53
57801;BME280;43627;42.728;23.256;2022-09-03T13:14:19;95124.41;;;23.38;64.57
57801;BME280;43627;42.728;23.256;2022-09-03T13:22:19;95103.38;;;24.00;59.81
57801;BME280;43627;42.728;23.256;2022-09-03T13:30:14;95098.28;;;24.63;58.49
57801;BME280;43627;42.728;23.256;2022-09-03T13:33:06;95098.31;;;24.27;56.80
57801;BME280;43627;42.728;23.256;2022-09-03T13:41:31;95105.34;;;24.20;59.51
57801;BME280;43627;42.728;23.256;2022-09-03T13:44:13;95081.31;;;24.38;59.09
57801;BME280;43627;42.728;23.256;2022-09-03T13:46:54;95106.69;;;24.70;54.99
57801;BME280;43627;42.728;23.256;2022-09-03T13:52:25;95094.09;;;24.33;54.06
57801;BME280;43627;42.728;23.256;2022-09-03T13:55:00;95097.69;;;24.13;54.86
57801;BME280;43627;42.728;23.256;2022-09-03T13:57:31;95095.94;;;24.02;56.72
57801;BME280;43627;42.728;23.256;2022-09-03T14:00:11;95108.38;;;23.73;58.30
57801;BME280;43627;42.728;23.256;2022-09-03T14:02:53;95110.56;;;23.46;63.03
57801;BME280;43627;42.728;23.256;2022-09-03T14:08:58;95104.50;;;24.04;57.82
57801;BME280;43627;42.728;23.256;2022-09-03T14:16:59;95110.94;;;23.91;57.21
57801;BME280;43627;42.728;23.256;2022-09-03T14:22:12;95104.25;;;23.66;57.14
57801;BME280;43627;42.728;23.256;2022-09-03T14:24:59;95105.72;;;23.67;57.46
57801;BME280;43627;42.728;23.256;2022-09-03T14:27:29;95103.06;;;23.82;57.19
57801;BME280;43627;42.728;23.256;2022-09-03T14:30:16;95105.09;;;24.10;55.95
57801;BME280;43627;42.728;23.256;2022-09-03T14:40:18;95100.38;;;24.26;54.73
57801;BME280;43627;42.728;23.256;2022-09-03T14:51:22;95117.31;;;23.58;55.52
57801;BME280;43627;42.728;23.256;2022-09-03T14:54:00;95109.00;;;23.37;57.12
57801;BME280;43627;42.728;23.256;2022-09-03T14:57:27;95099.59;;;23.61;54.79
57801;BME280;43627;42.728;23.256;2022-09-03T14:59:53;95118.50;;;23.62;56.50
57801;BME280;43627;42.728;23.256;2022-09-03T15:05:39;95117.28;;;23.71;55.17
57801;BME280;43627;42.728;23.256;2022-09-03T15:07:59;95123.34;;;23.62;55.35
57801;BME280;43627;42.728;23.256;2022-09-03T15:10:44;95118.72;;;23.44;56.35
57801;BME280;43627;42.728;23.256;2022-09-03T15:13:28;95122.50;;;23.33;56.98
57801;BME280;43627;42.728;23.256;2022-09-03T15:18:45;95121.81;;;22.98;60.29
57801;BME280;43627;42.728;23.256;2022-09-03T15:29:42;95135.50;;;22.36;61.98
57801;BME280;43627;42.728;23.256;2022-09-03T15:37:45;95120.34;;;22.37;60.88
57801;BME280;43627;42.728;23.256;2022-09-03T15:40:34;95128.75;;;22.44;60.19
57801;BME280;43627;42.728;23.256;2022-09-03T15:43:09;95135.28;;;22.34;60.74
57801;BME280;43627;42.728;23.256;2022-09-03T15:45:52;95127.69;;;22.47;60.22
57801;BME280;43627;42.728;23.256;2022-09-03T15:48:34;95127.94;;;22.70;61.75
57801;BME280;43627;42.728;23.256;2022-09-03T15:51:24;95134.84;;;22.56;59.31
57801;BME280;43627;42.728;23.256;2022-09-03T15:54:01;95132.06;;;22.43;60.93
57801;BME280;43627;42.728;23.256;2022-09-03T15:56:40;95139.13;;;22.44;59.77
57801;BME280;43627;42.728;23.256;2022-09-03T16:01:51;95133.56;;;22.44;60.54
57801;BME280;43627;42.728;23.256;2022-09-03T16:04:34;95151.09;;;22.26;63.63
57801;BME280;43627;42.728;23.256;2022-09-03T16:15:47;95147.63;;;21.66;64.32
57801;BME280;43627;42.728;23.256;2022-09-03T16:29:27;95158.22;;;21.17;68.53
57801;BME280;43627;42.728;23.256;2022-09-03T16:35:00;95174.72;;;21.09;70.07
57801;BME280;43627;42.728;23.256;2022-09-03T16:49:14;95181.72;;;20.97;74.99
57801;BME280;43627;42.728;23.256;2022-09-03T16:56:02;95170.69;;;20.92;77.70
57801;BME280;43627;42.728;23.256;2022-09-03T17:03:56;95185.59;;;20.89;79.03
57801;BME280;43627;42.728;23.256;2022-09-03T17:12:07;95205.34;;;20.36;95.88
57801;BME280;43627;42.728;23.256;2022-09-03T17:20:23;95213.53;;;19.74;100.00